Time;durP1;ratioP1;P1;durP2;ratioP2;P2;SDS_P1;SDS_P2;PMS_P1;PMS_P2;Temp;Humidity;BMP_temperature;BMP_pressure;BME280_temperature;BME280_humidity;BME280_pressure;Samples;Min_cycle;Max_cycle;Signal;HPM_P1;HPM_P2
2023/08/05 00:01:04;;;;;;;3.88;2.30;;;;;;;13.43;100.00;93608.38;5057063;28;20119;-85
2023/08/05 00:03:29;;;;;;;7.90;2.42;;;;;;;13.73;100.00;93610.50;5057112;28;20079;-86
2023/08/05 00:05:54;;;;;;;11.15;3.28;;;;;;;13.40;100.00;93603.69;5056115;28;20029;-86
2023/08/05 00:08:20;;;;;;;8.68;2.80;;;;;;;13.39;100.00;93602.94;5057389;28;20086;-85
2023/08/05 00:11:04;;;;;;;5.70;1.90;;;;;;;13.56;100.00;93601.47;5056843;28;20033;-85
2023/08/05 00:13:34;;;;;;;13.70;2.30;;;;;;;13.45;100.00;93584.38;5055811;28;20098;-85
2023/08/05 00:16:00;;;;;;;5.50;1.63;;;;;;;13.51;100.00;93578.69;5055797;28;20052;-86
2023/08/05 00:18:44;;;;;;;13.80;2.90;;;;;;;13.41;100.00;93565.78;5055639;28;20746;-86
2023/08/05 00:21:10;;;;;;;7.05;2.22;;;;;;;13.51;100.00;93575.28;5055484;28;20039;-85
2023/08/05 00:23:35;;;;;;;11.95;2.58;;;;;;;13.19;100.00;93563.97;5055765;28;20025;-85
2023/08/05 00:26:00;;;;;;;6.85;2.35;;;;;;;13.68;100.00;93556.13;5056933;28;20040;-86
2023/08/05 00:28:45;;;;;;;15.02;2.92;;;;;;;13.17;100.00;93550.38;5055643;28;20131;-85
2023/08/05 00:31:10;;;;;;;10.98;2.90;;;;;;;13.03;100.00;93545.97;5055467;28;20028;-85
2023/08/05 00:33:54;;;;;;;9.65;2.88;;;;;;;13.29;100.00;93555.84;5055575;28;20043;-86
2023/08/05 00:36:19;;;;;;;4.90;2.20;;;;;;;13.33;100.00;93540.97;5055327;28;20028;-85
2023/08/05 00:38:45;;;;;;;3.90;1.95;;;;;;;12.70;100.00;93546.28;5055063;28;20376;-86
2023/08/05 00:41:10;;;;;;;6.40;2.28;;;;;;;13.03;100.00;93532.81;5056548;28;20044;-86
2023/08/05 00:43:35;;;;;;;19.23;2.75;;;;;;;13.09;100.00;93533.47;5056262;28;20123;-85
2023/08/05 00:46:01;;;;;;;6.35;2.40;;;;;;;13.21;100.00;93543.44;5040080;28;20028;-86
2023/08/05 00:48:45;;;;;;;5.55;2.72;;;;;;;13.03;100.00;93545.22;5056668;28;20032;-87
2023/08/05 00:51:11;;;;;;;7.22;2.45;;;;;;;12.92;100.00;93549.97;5056751;28;20127;-86
2023/08/05 00:53:37;;;;;;;24.45;3.40;;;;;;;13.05;100.00;93533.28;5056515;28;20098;-85
2023/08/05 00:56:03;;;;;;;7.88;2.60;;;;;;;13.29;100.00;93545.31;5058039;28;20040;-86
2023/08/05 00:58:31;;;;;;;344.35;13.00;;;;;;;12.98;100.00;93543.47;5064582;28;20032;-87
2023/08/05 01:00:57;;;;;;;7.07;2.85;;;;;;;13.19;100.00;93556.09;5058294;28;20033;-86
2023/08/05 01:03:41;;;;;;;9.65;3.60;;;;;;;13.01;100.00;93556.81;5066377;28;20060;-86
2023/08/05 01:06:07;;;;;;;13.38;3.28;;;;;;;12.85;100.00;93548.53;5076299;28;20343;-85
2023/08/05 01:08:32;;;;;;;9.15;3.55;;;;;;;12.55;100.00;93548.19;5069343;28;20158;-86
2023/08/05 01:11:01;;;;;;;12.90;4.13;;;;;;;12.67;100.00;93544.25;5068266;28;20033;-86
2023/08/05 01:16:51;;;;;;;76.00;6.75;;;;;;;12.85;100.00;93550.38;5067342;28;20036;-86
2023/08/05 01:19:21;;;;;;;31.13;3.45;;;;;;;12.95;100.00;93541.47;5055775;28;20029;-86
2023/08/05 01:22:15;;;;;;;206.80;10.48;;;;;;;12.93;100.00;93531.25;5056226;28;20430;-86
2023/08/05 01:24:58;;;;;;;475.15;23.08;;;;;;;12.63;100.00;93546.69;5056965;28;20431;-86
2023/08/05 01:27:42;;;;;;;130.95;7.78;;;;;;;12.81;100.00;93546.78;5057028;28;20028;-86
2023/08/05 01:30:27;;;;;;;66.20;5.15;;;;;;;12.78;100.00;93537.66;5056560;28;20025;-85
2023/08/05 01:32:53;;;;;;;150.32;8.50;;;;;;;12.54;100.00;93546.63;5052214;28;20087;-86
2023/08/05 01:35:21;;;;;;;6.80;2.72;;;;;;;12.72;100.00;93546.75;5033750;28;20024;-85
2023/08/05 01:37:46;;;;;;;4.63;2.90;;;;;;;12.83;100.00;93547.25;5054218;28;20036;-85
2023/08/05 01:40:12;;;;;;;4.63;2.80;;;;;;;12.92;100.00;93547.31;5053929;28;20487;-86
2023/08/05 01:42:38;;;;;;;7.25;3.42;;;;;;;12.91;100.00;93545.75;5054736;28;20350;-84
2023/08/05 01:47:48;;;;;;;127.70;7.15;;;;;;;12.81;100.00;93552.84;5055355;28;20106;-86
2023/08/05 01:50:13;;;;;;;725.22;31.48;;;;;;;12.60;100.00;93552.56;5054256;28;20032;-86
2023/08/05 01:52:39;;;;;;;4.57;2.67;;;;;;;12.96;100.00;93558.78;5054024;28;20362;-85
2023/08/05 01:55:04;;;;;;;6.97;2.22;;;;;;;13.02;100.00;93557.56;5054440;28;20055;-86
2023/08/05 01:57:30;;;;;;;5.90;2.45;;;;;;;12.99;100.00;93553.72;5054305;28;20426;-86
2023/08/05 02:00:33;;;;;;;3.95;2.00;;;;;;;13.30;100.00;93562.63;5054986;28;20029;-85
2023/08/05 02:03:17;;;;;;;5.10;1.63;;;;;;;13.31;100.00;93558.16;5055424;28;20048;-86
2023/08/05 02:05:42;;;;;;;11.73;2.33;;;;;;;13.01;100.00;93554.19;5054210;28;20044;-86
2023/08/05 02:08:08;;;;;;;2.47;1.35;;;;;;;13.21;100.00;93559.22;5054006;28;20088;-87
2023/08/05 02:10:33;;;;;;;2.03;1.02;;;;;;;12.99;100.00;93558.19;5055212;28;20120;-86
2023/08/05 02:13:17;;;;;;;2.95;1.00;;;;;;;13.17;100.00;93559.03;5055236;28;20442;-86
2023/08/05 02:16:02;;;;;;;2.03;0.80;;;;;;;13.45;100.00;93560.72;5054074;28;20037;-85
2023/08/05 02:18:46;;;;;;;2.03;0.88;;;;;;;13.41;100.00;93561.28;5053891;28;20033;-86
2023/08/05 02:21:30;;;;;;;9.63;1.30;;;;;;;13.22;100.00;93566.03;5054964;28;20063;-87
2023/08/05 02:24:14;;;;;;;2.83;1.45;;;;;;;12.97;100.00;93562.97;5054041;28;20389;-85
2023/08/05 02:26:41;;;;;;;2.28;1.33;;;;;;;13.01;100.00;93551.56;5055244;28;20036;-84
2023/08/05 02:29:07;;;;;;;4.90;1.60;;;;;;;12.96;100.00;93550.91;5037048;28;20488;-86
2023/08/05 02:31:51;;;;;;;3.30;1.70;;;;;;;13.00;100.00;93554.47;5053702;28;20036;-85
2023/08/05 02:34:16;;;;;;;3.60;1.83;;;;;;;12.91;100.00;93558.91;5053692;28;20401;-85
2023/08/05 02:36:42;;;;;;;2.83;1.77;;;;;;;13.03;100.00;93555.72;5037505;28;20032;-86
2023/08/05 02:39:07;;;;;;;4.90;2.47;;;;;;;13.06;100.00;93553.28;5056927;28;20534;-85
2023/08/05 02:41:52;;;;;;;3.47;2.20;;;;;;;12.95;100.00;93558.00;5058609;28;20039;-85
2023/08/05 02:44:17;;;;;;;4.53;1.67;;;;;;;13.03;100.00;93547.84;5058585;28;20115;-85
2023/08/05 02:47:01;;;;;;;6.78;2.13;;;;;;;13.13;100.00;93537.06;5057685;28;20126;-86
2023/08/05 02:49:27;;;;;;;3.92;1.92;;;;;;;13.31;100.00;93551.03;5058163;28;20029;-86
2023/08/05 02:52:12;;;;;;;4.47;2.13;;;;;;;13.21;100.00;93544.19;5057613;28;20439;-86
2023/08/05 02:54:55;;;;;;;4.05;1.92;;;;;;;13.21;100.00;93548.69;5058643;28;20403;-85
2023/08/05 02:57:21;;;;;;;2.65;1.58;;;;;;;13.25;100.00;93558.28;5058848;28;20049;-86
2023/08/05 02:59:46;;;;;;;4.72;2.08;;;;;;;13.09;100.00;93557.13;5058093;28;20119;-87
2023/08/05 03:02:12;;;;;;;2.75;1.80;;;;;;;12.93;100.00;93565.41;5054910;28;20045;-86
2023/08/05 03:04:56;;;;;;;4.80;2.20;;;;;;;12.88;100.00;93557.66;5038824;28;20033;-85
2023/08/05 03:07:21;;;;;;;3.17;1.75;;;;;;;12.87;100.00;93562.13;5038692;28;20029;-87
2023/08/05 03:10:06;;;;;;;3.53;2.22;;;;;;;12.67;100.00;93549.50;5038187;28;20025;-87
2023/08/05 03:12:31;;;;;;;4.18;2.13;;;;;;;12.75;100.00;93548.75;5038660;28;20147;-86
2023/08/05 03:14:56;;;;;;;3.17;1.90;;;;;;;12.84;100.00;93546.22;5039572;28;20033;-85
2023/08/05 03:17:22;;;;;;;3.30;2.03;;;;;;;12.97;100.00;93545.31;5038536;28;20328;-86
2023/08/05 03:19:52;;;;;;;4.32;1.75;;;;;;;12.94;100.00;93550.44;5039508;28;20044;-85
2023/08/05 03:22:17;;;;;;;6.32;2.17;;;;;;;12.89;100.00;93542.66;5038627;28;20037;-86
2023/08/05 03:24:43;;;;;;;3.45;2.00;;;;;;;12.89;100.00;93547.91;5038182;28;20116;-87
2023/08/05 03:27:09;;;;;;;3.97;2.10;;;;;;;12.98;100.00;93549.53;5038754;28;20112;-86
2023/08/05 03:29:53;;;;;;;3.83;1.90;;;;;;;13.25;100.00;93550.41;5039482;28;20112;-86
2023/08/05 03:32:18;;;;;;;3.38;2.00;;;;;;;13.20;100.00;93547.13;5039565;28;20042;-85
2023/08/05 03:35:02;;;;;;;4.32;2.05;;;;;;;13.17;100.00;93543.25;5039103;28;20056;-86
2023/08/05 03:37:29;;;;;;;4.00;1.85;;;;;;;13.12;100.00;93540.75;5054636;28;20434;-86
2023/08/05 03:39:54;;;;;;;3.50;1.48;;;;;;;13.08;100.00;93537.19;5065160;28;20067;-84
2023/08/05 03:42:19;;;;;;;2.05;1.27;;;;;;;13.18;100.00;93542.19;5046873;28;20037;-84
2023/08/05 03:45:04;;;;;;;2.88;1.55;;;;;;;13.21;100.00;93527.66;5048038;28;20043;-85
2023/08/05 03:47:30;;;;;;;2.28;1.27;;;;;;;13.26;100.00;93533.53;5053067;28;20340;-84
2023/08/05 03:49:55;;;;;;;2.88;1.40;;;;;;;13.29;100.00;93529.53;5058687;28;20040;-84
2023/08/05 03:52:20;;;;;;;2.88;1.33;;;;;;;13.25;100.00;93541.75;5057941;28;20040;-85
2023/08/05 03:54:46;;;;;;;3.05;1.70;;;;;;;13.37;100.00;93547.22;5057782;28;20052;-84
2023/08/05 03:57:11;;;;;;;2.40;1.35;;;;;;;13.34;100.00;93533.88;5058926;28;20442;-85
2023/08/05 03:59:56;;;;;;;6.75;1.63;;;;;;;13.21;100.00;93540.81;5057522;28;20449;-85
2023/08/05 04:02:21;;;;;;;2.15;1.40;;;;;;;13.29;100.00;93546.09;5057431;28;20108;-85
2023/08/05 04:04:46;;;;;;;3.78;1.20;;;;;;;13.28;100.00;93547.19;5057422;28;20128;-85
2023/08/05 04:07:31;;;;;;;2.60;1.63;;;;;;;13.31;100.00;93530.00;5057599;28;20037;-85
2023/08/05 04:10:15;;;;;;;1.92;1.25;;;;;;;13.25;100.00;93549.63;5067580;28;20047;-85
2023/08/05 04:13:01;;;;;;;2.72;1.17;;;;;;;13.47;100.00;93548.81;5078746;28;20174;-85
2023/08/05 04:15:28;;;;;;;6.25;1.63;;;;;;;13.37;100.00;93538.53;5078741;28;20031;-85
2023/08/05 04:18:00;;;;;;;4.38;1.30;;;;;;;13.51;100.00;93546.34;5078680;28;20055;-85
2023/08/05 04:20:27;;;;;;;3.40;1.45;;;;;;;13.64;100.00;93529.66;5077204;28;20036;-84
2023/08/05 04:23:15;;;;;;;2.75;1.27;;;;;;;13.61;100.00;93529.50;5077276;28;20029;-85
2023/08/05 04:25:43;;;;;;;3.30;1.33;;;;;;;13.69;100.00;93526.09;5077431;28;20039;-86
2023/08/05 04:28:11;;;;;;;2.63;1.67;;;;;;;13.80;100.00;93522.09;5076966;28;20039;-85
2023/08/05 04:30:36;;;;;;;2.75;1.33;;;;;;;13.57;100.00;93524.06;5078578;28;20024;-85
2023/08/05 04:33:02;;;;;;;3.80;1.35;;;;;;;13.71;100.00;93521.31;5077085;28;20430;-86
2023/08/05 04:35:28;;;;;;;4.97;1.45;;;;;;;14.06;100.00;93523.19;5076853;28;20033;-85
2023/08/05 04:37:53;;;;;;;1.60;1.20;;;;;;;13.63;100.00;93533.38;5078217;28;20040;-85
2023/08/05 04:40:37;;;;;;;1.75;1.20;;;;;;;13.91;100.00;93530.47;5076221;28;20040;-85
2023/08/05 04:43:03;;;;;;;1.55;1.10;;;;;;;14.21;100.00;93521.97;5078155;28;20029;-85
2023/08/05 04:45:50;;;;;;;1.52;0.98;;;;;;;14.44;100.00;93521.81;5060157;28;20460;-84
2023/08/05 04:48:17;;;;;;;2.53;1.30;;;;;;;14.45;100.00;93529.38;5077950;28;20471;-84
2023/08/05 04:51:01;;;;;;;2.35;1.27;;;;;;;14.80;100.00;93529.38;5076650;28;20345;-84
2023/08/05 04:53:26;;;;;;;1.70;1.20;;;;;;;14.50;100.00;93526.59;5077453;28;20032;-84
2023/08/05 04:55:52;;;;;;;1.80;1.15;;;;;;;14.55;100.00;93534.34;5076616;28;20078;-84
2023/08/05 04:58:17;;;;;;;2.67;1.13;;;;;;;14.57;100.00;93518.97;5077686;28;20028;-84
2023/08/05 05:06:11;;;;;;;3.35;1.58;;;;;;;14.50;100.00;93526.59;5076431;28;20093;-85
2023/08/05 05:08:38;;;;;;;11.20;1.48;;;;;;;14.40;100.00;93529.56;5077291;28;20123;-84
2023/08/05 05:13:50;;;;;;;2.20;1.20;;;;;;;14.46;100.00;93519.63;5077405;28;20396;-84
2023/08/05 05:16:17;;;;;;;1.67;1.02;;;;;;;14.61;100.00;93513.88;5076357;28;20043;-85
2023/08/05 05:18:43;;;;;;;1.83;1.00;;;;;;;14.54;100.00;93530.16;5075706;28;20090;-84
2023/08/05 05:21:08;;;;;;;2.03;1.20;;;;;;;14.85;100.00;93523.16;5076284;28;20387;-85
2023/08/05 05:23:33;;;;;;;1.80;1.20;;;;;;;14.72;100.00;93516.19;5076078;28;20460;-85
2023/08/05 05:25:59;;;;;;;2.30;1.02;;;;;;;14.62;100.00;93527.81;5075889;28;20035;-84
2023/08/05 05:28:24;;;;;;;2.63;1.35;;;;;;;15.09;100.00;93530.50;5074113;28;20151;-85
2023/08/05 05:30:50;;;;;;;2.03;1.30;;;;;;;15.20;100.00;93535.44;5077065;28;20319;-85
2023/08/05 05:33:15;;;;;;;3.17;1.20;;;;;;;14.87;100.00;93536.00;5075957;28;20044;-85
2023/08/05 05:35:59;;;;;;;2.30;1.40;;;;;;;14.62;100.00;93530.44;5075299;28;20074;-84
2023/08/05 05:41:27;;;;;;;1.85;1.38;;;;;;;14.75;100.00;93532.16;5075866;28;20062;-84
2023/08/05 05:43:53;;;;;;;4.05;1.17;;;;;;;14.13;100.00;93541.94;5076786;28;20337;-85
2023/08/05 05:46:19;;;;;;;4.22;1.42;;;;;;;14.06;100.00;93542.41;5075681;28;20024;-84
2023/08/05 05:49:03;;;;;;;2.67;1.50;;;;;;;14.24;100.00;93539.78;5076928;28;20119;-84
2023/08/05 05:56:59;;;;;;;2.55;1.45;;;;;;;14.08;100.00;93542.88;5075776;28;20063;-85
2023/08/05 05:59:25;;;;;;;2.70;1.60;;;;;;;13.93;100.00;93544.13;5076024;28;20029;-85
2023/08/05 06:01:50;;;;;;;5.90;1.70;;;;;;;13.73;100.00;93542.06;5075504;28;20020;-84
2023/08/05 06:04:15;;;;;;;3.17;1.65;;;;;;;13.79;100.00;93551.38;5076937;28;20057;-85
2023/08/05 06:06:41;;;;;;;5.70;1.30;;;;;;;13.71;100.00;93552.91;5075672;28;20408;-85
2023/08/05 06:09:07;;;;;;;2.42;1.63;;;;;;;13.67;100.00;93555.38;5072831;28;20024;-84
2023/08/05 06:11:32;;;;;;;3.45;1.58;;;;;;;13.75;100.00;93545.16;5056611;28;20449;-82
2023/08/05 06:14:00;;;;;;;3.35;1.35;;;;;;;13.62;100.00;93546.84;5059255;28;20025;-85
2023/08/05 06:16:30;;;;;;;12.52;1.65;;;;;;;13.65;100.00;93554.13;5043072;28;20045;-85
2023/08/05 06:18:56;;;;;;;1.58;1.25;;;;;;;13.71;100.00;93551.03;5042971;28;20032;-85
2023/08/05 06:21:21;;;;;;;1.98;1.10;;;;;;;13.74;100.00;93546.22;5039575;28;20041;-83
2023/08/05 06:23:46;;;;;;;2.00;1.20;;;;;;;13.66;100.00;93555.66;5039257;28;20029;-84
2023/08/05 06:26:12;;;;;;;1.83;0.93;;;;;;;13.68;100.00;93551.66;5039207;28;20350;-86
2023/08/05 06:28:37;;;;;;;2.40;1.40;;;;;;;13.65;100.00;93551.47;5038999;28;20446;-85
2023/08/05 06:31:03;;;;;;;3.17;1.48;;;;;;;13.57;100.00;93559.06;5040599;28;20446;-83
2023/08/05 06:36:31;;;;;;;1.83;1.00;;;;;;;13.36;100.00;93571.97;5040347;28;20521;-84
2023/08/05 06:38:56;;;;;;;1.70;1.00;;;;;;;13.22;100.00;93572.06;5038921;28;20342;-87
2023/08/05 06:41:40;;;;;;;2.50;1.15;;;;;;;13.21;100.00;93577.63;5040937;28;20034;-85
2023/08/05 06:44:06;;;;;;;1.30;0.90;;;;;;;13.29;100.00;93582.94;5059921;28;20107;-84
2023/08/05 06:46:31;;;;;;;2.60;1.00;;;;;;;13.12;100.00;93588.88;5058872;28;20564;-85
2023/08/05 06:49:35;;;;;;;1.92;1.00;;;;;;;13.27;100.00;93586.94;5058664;28;20103;-86
2023/08/05 06:52:19;;;;;;;1.27;0.82;;;;;;;13.32;100.00;93596.56;5059948;28;20032;-84
2023/08/05 06:54:45;;;;;;;1.05;0.70;;;;;;;13.15;100.00;93596.16;5059691;28;20319;-85
2023/08/05 06:57:10;;;;;;;2.35;0.75;;;;;;;13.16;100.00;93610.09;5058745;28;20032;-86
2023/08/05 06:59:35;;;;;;;0.82;0.65;;;;;;;13.28;100.00;93614.78;5058473;28;20033;-86
2023/08/05 07:02:19;;;;;;;0.75;0.68;;;;;;;13.54;100.00;93607.03;5075427;28;20037;-83
2023/08/05 07:04:45;;;;;;;0.57;0.57;;;;;;;13.41;100.00;93621.81;5051808;28;20537;-84
2023/08/05 07:07:11;;;;;;;1.27;0.52;;;;;;;13.65;100.00;93625.19;5059727;28;20043;-84
2023/08/05 07:09:36;;;;;;;1.42;0.52;;;;;;;13.61;100.00;93626.88;5071317;28;20078;-85
2023/08/05 07:12:02;;;;;;;0.40;0.20;;;;;;;13.68;100.00;93633.25;5058466;28;20029;-86
2023/08/05 07:14:27;;;;;;;0.22;0.20;;;;;;;13.81;100.00;93638.72;5055907;28;20028;-86
2023/08/05 07:16:53;;;;;;;1.00;0.20;;;;;;;13.69;100.00;93640.06;5022170;28;20032;-89
2023/08/05 07:19:37;;;;;;;1.63;0.22;;;;;;;13.62;100.00;93634.44;5038292;28;20037;-89
2023/08/05 07:22:31;;;;;;;;;;;;;;;;;;;;;
2023/08/05 07:25:03;;;;;;;;;;;;;;;13.71;100.00;93658.19;5032999;28;20358;-90
2023/08/05 07:27:28;;;;;;;0.13;0.13;;;;;;;13.60;100.00;93664.81;5039975;28;19909;-89
2023/08/05 07:29:54;;;;;;;0.20;0.20;;;;;;;13.37;100.00;93651.66;5039812;28;20052;-88
2023/08/05 07:32:19;;;;;;;0.10;0.10;;;;;;;13.15;100.00;93663.78;5039909;28;20079;-90
2023/08/05 07:35:03;;;;;;;0.70;0.20;;;;;;;13.19;100.00;93669.97;5021810;28;20091;-93
2023/08/05 07:40:38;;;;;;;1.17;0.40;;;;;;;13.02;100.00;93673.25;5048728;28;20048;-91
2023/08/05 07:43:05;;;;;;;0.10;0.10;;;;;;;12.99;100.00;93673.88;5058726;28;20430;-93
2023/08/05 07:48:36;;;;;;;2.75;0.30;;;;;;;13.02;100.00;93686.41;5058868;28;20036;-91
2023/08/05 07:51:08;;;;;;;0.60;0.20;;;;;;;13.12;100.00;93690.66;5057962;28;20037;-90
2023/08/05 07:53:36;;;;;;;0.32;0.32;;;;;;;13.12;100.00;93682.75;5057678;28;20033;-90
2023/08/05 07:56:20;;;;;;;0.47;0.28;;;;;;;13.21;100.00;93683.59;5057749;28;20032;-89
2023/08/05 07:58:46;;;;;;;1.05;0.20;;;;;;;13.25;100.00;93686.41;5057521;28;20034;-91
2023/08/05 08:01:31;;;;;;;1.08;0.30;;;;;;;13.50;100.00;93685.03;5057872;28;20423;-90
2023/08/05 08:04:01;;;;;;;0.40;0.30;;;;;;;13.48;100.00;93691.66;5057749;28;20345;-90
2023/08/05 08:06:27;;;;;;;1.50;0.20;;;;;;;13.53;100.00;93697.56;5057890;28;20179;-88
2023/08/05 08:09:13;;;;;;;0.45;0.30;;;;;;;13.50;100.00;93689.53;5057427;28;20107;-91
2023/08/05 08:11:38;;;;;;;0.30;0.28;;;;;;;13.42;100.00;93697.03;5024496;28;20048;-89
2023/08/05 08:16:48;;;;;;;0.52;0.43;;;;;;;13.37;100.00;93691.91;5037385;28;20504;-86
2023/08/05 08:19:16;;;;;;;0.40;0.30;;;;;;;13.34;100.00;93694.34;5020445;28;20029;-89
2023/08/05 08:22:00;;;;;;;1.20;0.50;;;;;;;13.33;100.00;93695.44;5038577;28;20025;-88
2023/08/05 08:24:25;;;;;;;0.40;0.40;;;;;;;13.34;100.00;93699.63;5037641;28;20036;-89
2023/08/05 08:27:12;;;;;;;0.73;0.40;;;;;;;13.56;100.00;93710.16;5037416;28;20034;-89
2023/08/05 08:29:37;;;;;;;2.67;0.47;;;;;;;13.55;100.00;93708.56;5038307;28;20428;-87
2023/08/05 08:32:03;;;;;;;0.40;0.30;;;;;;;13.53;100.00;93709.97;5037245;28;20059;-89
2023/08/05 08:34:47;;;;;;;0.40;0.40;;;;;;;13.47;100.00;93711.94;5036366;28;20389;-87
2023/08/05 08:37:12;;;;;;;1.20;0.55;;;;;;;13.62;100.00;93720.53;5038333;28;20033;-88
2023/08/05 08:39:38;;;;;;;0.55;0.50;;;;;;;13.66;100.00;93716.22;5020357;28;20119;-89
2023/08/05 08:42:22;;;;;;;1.75;0.60;;;;;;;13.76;100.00;93731.75;5037320;28;20033;-88
2023/08/05 08:44:48;;;;;;;1.75;0.80;;;;;;;13.69;100.00;93719.03;5036990;28;20026;-89
2023/08/05 08:50:18;;;;;;;0.60;0.60;;;;;;;13.69;100.00;93736.66;5036736;28;20032;-89
2023/08/05 08:53:03;;;;;;;0.50;0.43;;;;;;;13.76;100.00;93729.13;5036881;28;20108;-90
2023/08/05 08:55:48;;;;;;;2.13;0.70;;;;;;;14.04;100.00;93733.41;5036464;28;20029;-89
2023/08/05 08:58:13;;;;;;;1.77;0.50;;;;;;;14.39;100.00;93730.91;5037936;28;20049;-90
2023/08/05 09:00:39;;;;;;;3.15;0.50;;;;;;;14.25;100.00;93717.84;5036198;28;20038;-89
2023/08/05 09:03:25;;;;;;;1.27;0.50;;;;;;;14.61;100.00;93716.06;5020021;28;20063;-87
2023/08/05 09:05:54;;;;;;;1.40;0.57;;;;;;;14.79;100.00;93717.66;5036591;28;20075;-90
2023/08/05 09:08:22;;;;;;;1.65;0.70;;;;;;;14.67;100.00;93712.19;5036475;28;20041;-88
2023/08/05 09:10:47;;;;;;;0.60;0.50;;;;;;;14.63;100.00;93709.41;5036698;28;20064;-90
2023/08/05 09:13:17;;;;;;;0.65;0.50;;;;;;;15.07;100.00;93719.22;5019945;28;20061;-91
2023/08/05 09:15:42;;;;;;;2.13;1.00;;;;;;;15.07;100.00;93716.56;5036427;28;20124;-90
2023/08/05 09:18:08;;;;;;;0.90;0.57;;;;;;;14.97;100.00;93721.06;5036333;28;20141;-90
2023/08/05 09:20:35;;;;;;;0.90;0.50;;;;;;;15.15;100.00;93718.44;5035941;28;20035;-88
2023/08/05 09:23:05;;;;;;;0.80;0.60;;;;;;;15.36;100.00;93720.44;5036343;28;20354;-88
2023/08/05 09:25:31;;;;;;;0.90;0.60;;;;;;;15.23;100.00;93719.53;5036497;28;20419;-90
2023/08/05 09:27:59;;;;;;;1.05;0.55;;;;;;;14.67;100.00;93730.66;5036005;28;20041;-91
2023/08/05 09:30:25;;;;;;;2.20;0.82;;;;;;;14.63;100.00;93732.34;5037060;28;20431;-89
2023/08/05 09:35:36;;;;;;;4.10;0.50;;;;;;;14.84;100.00;93724.63;5036043;28;20101;-91
2023/08/05 09:38:01;;;;;;;2.30;0.50;;;;;;;14.88;100.00;93730.06;5035781;28;20033;-90
2023/08/05 09:40:29;;;;;;;0.90;0.43;;;;;;;15.39;100.00;93722.44;5019405;28;20025;-90
2023/08/05 09:43:03;;;;;;;0.50;0.50;;;;;;;15.67;100.00;93717.56;5037243;28;20087;-90
2023/08/05 09:48:42;;;;;;;1.07;0.53;;;;;;;16.70;100.00;93715.09;5036933;28;20036;-89
2023/08/05 09:51:09;;;;;;;13.55;7.90;;;;;;;16.72;100.00;93715.53;5035982;28;20387;-89
2023/08/05 09:56:22;;;;;;;5.05;0.60;;;;;;;16.53;100.00;93708.81;5035560;28;20350;-88
2023/08/05 09:58:48;;;;;;;1.10;0.47;;;;;;;16.96;100.00;93703.56;5035242;28;20029;-89
2023/08/05 10:03:58;;;;;;;1.27;0.82;;;;;;;17.61;100.00;93712.97;5035942;28;20040;-88
2023/08/05 10:06:53;;;;;;;2.28;0.57;;;;;;;16.99;100.00;93713.50;5037187;28;20041;-91
2023/08/05 10:09:19;;;;;;;0.82;0.68;;;;;;;17.23;100.00;93709.44;5036506;28;20419;-86
2023/08/05 10:11:45;;;;;;;4.40;0.80;;;;;;;16.20;100.00;93714.75;5035678;28;20030;-87
2023/08/05 10:14:12;;;;;;;2.15;0.70;;;;;;;15.96;100.00;93713.47;5035583;28;20128;-87
2023/08/05 10:16:39;;;;;;;2.70;0.60;;;;;;;15.72;100.00;93715.84;5049320;28;20028;-86
2023/08/05 10:19:04;;;;;;;1.38;0.75;;;;;;;15.59;100.00;93710.44;5055410;28;20031;-87
2023/08/05 10:21:42;;;;;;;1.00;0.70;;;;;;;16.32;100.00;93713.28;5055799;28;20037;-87
2023/08/05 10:24:08;;;;;;;0.98;0.57;;;;;;;16.25;100.00;93714.59;5056661;28;20061;-86
2023/08/05 10:26:46;;;;;;;1.98;0.80;;;;;;;15.82;100.00;93718.16;5056585;28;20469;-87
2023/08/05 10:29:38;;;;;;;2.97;1.02;;;;;;;15.93;100.00;93716.75;5055543;28;20043;-87
2023/08/05 10:32:29;;;;;;;2.05;0.70;;;;;;;16.08;100.00;93725.25;5052477;28;20094;-87
2023/08/05 10:38:24;;;;;;;1.13;0.50;;;;;;;15.79;100.00;93734.63;5055277;28;20040;-87
2023/08/05 10:43:53;;;;;;;2.05;0.57;;;;;;;15.94;100.00;93742.06;5055559;28;20027;-86
2023/08/05 10:46:18;;;;;;;2.33;0.70;;;;;;;15.86;100.00;93739.44;5056173;28;20036;-86
2023/08/05 10:48:47;;;;;;;4.90;0.65;;;;;;;15.51;100.00;93735.00;5055286;28;20029;-87
2023/08/05 10:51:17;;;;;;;1.23;0.75;;;;;;;15.78;100.00;93744.41;5056605;28;20111;-86
2023/08/05 10:53:44;;;;;;;1.08;0.60;;;;;;;15.73;100.00;93749.09;5054839;28;20338;-86
2023/08/05 10:56:13;;;;;;;1.15;0.47;;;;;;;15.55;100.00;93751.78;5055215;28;20037;-87
2023/08/05 10:58:49;;;;;;;0.50;0.50;;;;;;;15.82;100.00;93755.13;5056681;28;20029;-87
2023/08/05 11:01:33;;;;;;;5.55;0.70;;;;;;;15.77;100.00;93755.28;5058947;28;20052;-87
2023/08/05 11:03:58;;;;;;;1.20;0.60;;;;;;;16.17;100.00;93752.38;5060001;28;20043;-87
2023/08/05 11:06:25;;;;;;;3.40;0.80;;;;;;;16.16;100.00;93755.34;5060229;28;20036;-87
2023/08/05 11:08:51;;;;;;;1.52;0.40;;;;;;;16.50;100.00;93754.44;5058946;28;20036;-87
2023/08/05 11:14:20;;;;;;;1.75;0.70;;;;;;;16.08;100.00;93756.94;5059643;28;20083;-86
2023/08/05 11:16:46;;;;;;;0.90;0.63;;;;;;;16.93;100.00;93751.84;5059554;28;20029;-88
2023/08/05 11:19:12;;;;;;;0.90;0.70;;;;;;;16.49;100.00;93739.63;5041690;28;20037;-87
2023/08/05 11:21:42;;;;;;;2.17;0.65;;;;;;;16.29;100.00;93748.31;5059995;28;20127;-87
2023/08/05 11:24:08;;;;;;;2.33;0.70;;;;;;;16.51;100.00;93747.25;5058592;28;20388;-86
2023/08/05 11:26:33;;;;;;;1.05;0.77;;;;;;;16.91;100.00;93741.56;5058496;28;20037;-87
2023/08/05 11:29:00;;;;;;;1.40;0.50;;;;;;;17.80;100.00;93741.59;5057954;28;20048;-87
2023/08/05 11:43:05;;;;;;;2.13;0.70;;;;;;;21.18;100.00;93738.00;5059142;28;20354;-87
2023/08/05 11:48:33;;;;;;;1.40;0.70;;;;;;;21.29;100.00;93728.31;5059018;28;20035;-88
2023/08/05 11:51:01;;;;;;;1.73;0.45;;;;;;;21.93;100.00;93732.53;5059457;28;20033;-88
2023/08/05 11:53:27;;;;;;;0.55;0.52;;;;;;;20.52;100.00;93733.16;5058085;28;20036;-88
2023/08/05 11:55:53;;;;;;;0.93;0.40;;;;;;;20.35;100.00;93728.97;5057939;28;20052;-88
2023/08/05 11:58:19;;;;;;;1.15;0.73;;;;;;;21.76;100.00;93728.44;5058056;28;20050;-88
2023/08/05 12:01:04;;;;;;;1.40;0.50;;;;;;;21.12;100.00;93723.44;5057961;28;20033;-88
2023/08/05 12:03:31;;;;;;;0.60;0.50;;;;;;;21.03;100.00;93727.06;5057852;28;20028;-87
2023/08/05 12:06:00;;;;;;;0.93;0.50;;;;;;;18.63;100.00;93722.19;5040876;28;20097;-87
2023/08/05 12:08:39;;;;;;;3.22;0.60;;;;;;;17.96;100.00;93725.81;5038005;28;20091;-88
2023/08/05 12:11:04;;;;;;;2.28;0.57;;;;;;;17.97;100.00;93723.97;5021321;28;20083;-86
2023/08/05 12:13:36;;;;;;;1.13;0.60;;;;;;;18.35;100.00;93730.84;5041811;28;20324;-88
2023/08/05 12:16:13;;;;;;;4.07;0.82;;;;;;;18.11;100.00;93732.41;5038219;28;20052;-87
2023/08/05 12:18:45;;;;;;;2.65;0.57;;;;;;;19.71;100.00;93726.28;5037440;28;20029;-87
2023/08/05 12:21:30;;;;;;;1.08;0.60;;;;;;;18.56;100.00;93737.91;5037490;28;20083;-87
2023/08/05 12:23:55;;;;;;;4.30;0.80;;;;;;;18.71;100.00;93723.19;5038638;28;20060;-88
2023/08/05 12:26:28;;;;;;;1.60;0.70;;;;;;;18.41;100.00;93739.34;5038856;28;20038;-88
2023/08/05 12:28:53;;;;;;;0.95;0.52;;;;;;;18.39;100.00;93738.91;5037528;28;20454;-87
2023/08/05 12:31:20;;;;;;;0.98;0.60;;;;;;;18.37;100.00;93740.00;5051660;28;20036;-91
2023/08/05 12:33:46;;;;;;;3.08;1.60;;;;;;;17.86;100.00;93747.44;5040785;28;20035;-89
2023/08/05 12:36:16;;;;;;;113.85;73.05;;;;;;;17.84;100.00;93749.66;5058271;28;20028;-90
2023/08/05 12:38:42;;;;;;;17.70;9.95;;;;;;;18.69;100.00;93760.69;5040593;28;20025;-92
2023/08/05 12:41:07;;;;;;;4.03;0.73;;;;;;;18.55;100.00;93747.75;5042255;28;20583;-88
2023/08/05 12:43:51;;;;;;;2.22;1.52;;;;;;;17.34;100.00;93747.63;5058548;28;20068;-92
2023/08/05 12:46:26;;;;;;;;;;;;;;;;;;;;;
2023/08/05 12:48:52;;;;;;;0.77;0.47;;;;;;;17.70;100.00;93761.31;5052858;28;20025;-87
2023/08/05 12:51:36;;;;;;;1.15;0.57;;;;;;;17.64;100.00;93768.69;5077139;28;20411;-89
2023/08/05 12:54:21;;;;;;;5.18;0.80;;;;;;;16.79;100.00;93774.03;5043742;28;20033;-92
2023/08/05 12:56:46;;;;;;;0.98;0.70;;;;;;;17.41;100.00;93775.47;5054708;28;20028;-89